Time;durP1;ratioP1;P1;durP2;ratioP2;P2;SDS_P1;SDS_P2;PMS_P1;PMS_P2;Temp;Humidity;BMP_temperature;BMP_pressure;BME280_temperature;BME280_humidity;BME280_pressure;Samples;Min_cycle;Max_cycle;Signal;HPM_P1;HPM_P2
2022/09/18 00:00:54;;;;;;;3.03;1.00;;;11.10;99.90;;;;;;5070480;28;20192;-56
2022/09/18 00:03:20;;;;;;;5.37;1.10;;;10.80;99.90;;;;;;5069987;28;20686;-56
2022/09/18 00:05:46;;;;;;;4.30;1.30;;;10.70;99.90;;;;;;5069554;28;20223;-56
2022/09/18 00:08:12;;;;;;;5.20;1.30;;;10.50;99.90;;;;;;5070249;28;20268;-56
2022/09/18 00:10:43;;;;;;;5.03;1.10;;;10.40;99.90;;;;;;5069970;28;20557;-56
2022/09/18 00:13:09;;;;;;;5.80;1.30;;;10.40;99.90;;;;;;5069819;28;20219;-56
2022/09/18 00:15:35;;;;;;;6.10;1.70;;;10.40;99.90;;;;;;5070150;28;20176;-55
2022/09/18 00:18:01;;;;;;;3.87;1.27;;;10.40;99.90;;;;;;5069977;28;20180;-56
2022/09/18 00:20:27;;;;;;;8.20;1.60;;;10.40;99.90;;;;;;5069862;28;20638;-56
2022/09/18 00:22:53;;;;;;;7.57;1.53;;;10.30;99.90;;;;;;5070058;28;20297;-60
2022/09/18 00:25:19;;;;;;;3.63;1.50;;;10.30;99.90;;;;;;5069919;28;20181;-56
2022/09/18 00:27:44;;;;;;;4.97;1.50;;;10.20;99.90;;;;;;5069423;28;20701;-56
2022/09/18 00:30:10;;;;;;;5.00;1.23;;;10.20;99.90;;;;;;5069831;28;20615;-56
2022/09/18 00:32:36;;;;;;;6.30;1.40;;;10.10;99.90;;;;;;5069877;28;20176;-56
2022/09/18 00:35:02;;;;;;;4.27;1.03;;;10.10;99.90;;;;;;5070073;28;20192;-57
2022/09/18 00:37:27;;;;;;;5.47;1.30;;;10.00;99.90;;;;;;5051485;28;20550;-56
2022/09/18 00:39:53;;;;;;;3.70;1.10;;;9.90;99.90;;;;;;5068784;28;20183;-56
2022/09/18 00:42:19;;;;;;;2.23;1.10;;;9.90;99.90;;;;;;5070251;28;20200;-56
2022/09/18 00:44:46;;;;;;;2.23;0.90;;;9.90;99.90;;;;;;5069281;28;20199;-56
2022/09/18 00:47:24;;;;;;;4.40;1.07;;;9.90;99.90;;;;;;5072476;28;20215;-56
2022/09/18 00:50:08;;;;;;;2.13;1.30;;;9.80;99.90;;;;;;5055520;28;20785;-56
2022/09/18 00:52:57;;;;;;;8.53;1.63;;;9.90;99.90;;;;;;5073731;28;20176;-56
2022/09/18 00:55:30;;;;;;;4.30;1.43;;;9.90;99.90;;;;;;5054041;28;20329;-55
2022/09/18 00:57:59;;;;;;;3.30;1.50;;;9.90;99.90;;;;;;5060617;28;20183;-55
2022/09/18 01:00:25;;;;;;;4.03;1.20;;;9.90;99.90;;;;;;5073521;28;20177;-55
2022/09/18 01:02:51;;;;;;;3.40;1.00;;;8.90;99.90;;;;;;5072526;28;20526;-55
2022/09/18 01:05:35;;;;;;;6.43;1.40;;;10.10;99.90;;;;;;5073362;28;20280;-58
2022/09/18 01:08:31;;;;;;;6.03;1.20;;;10.00;99.90;;;;;;5073214;28;20702;-57
2022/09/18 01:11:12;;;;;;;2.33;1.07;;;9.90;99.90;;;;;;5057958;28;20181;-57
2022/09/18 01:13:43;;;;;;;1.27;0.80;;;9.80;99.90;;;;;;5073365;28;20176;-56
2022/09/18 01:16:28;;;;;;;4.63;1.37;;;9.80;99.90;;;;;;5070673;28;20199;-57
2022/09/18 01:19:23;;;;;;;5.07;1.90;;;9.70;99.90;;;;;;5066498;28;20180;-57
2022/09/18 01:22:33;;;;;;;4.63;1.17;;;9.70;99.90;;;;;;5073301;28;20238;-57
2022/09/18 01:25:07;;;;;;;7.07;1.00;;;9.60;99.90;;;;;;5019773;28;20941;-57
2022/09/18 01:28:08;;;;;;;3.10;1.10;;;9.50;99.90;;;;;;5056616;28;20199;-57
2022/09/18 01:30:38;;;;;;;4.20;1.00;;;9.50;99.90;;;;;;5073247;28;20172;-57
2022/09/18 01:33:16;;;;;;;3.10;0.97;;;9.40;99.90;;;;;;5072844;28;20297;-57
2022/09/18 01:35:47;;;;;;;2.03;1.10;;;9.40;99.90;;;;;;5072535;28;20514;-57
2022/09/18 01:38:18;;;;;;;4.63;1.23;;;9.40;99.90;;;;;;5072929;28;20175;-57
2022/09/18 01:40:55;;;;;;;3.93;1.10;;;9.30;99.90;;;;;;5072791;28;20378;-56
2022/09/18 01:43:24;;;;;;;6.63;1.60;;;9.20;99.90;;;;;;5072850;28;20635;-57
2022/09/18 01:45:54;;;;;;;5.40;1.53;;;9.20;99.90;;;;;;5073072;28;20216;-57
2022/09/18 01:48:32;;;;;;;3.77;1.10;;;9.20;99.90;;;;;;5072765;28;20169;-57
2022/09/18 01:51:09;;;;;;;2.90;1.30;;;9.20;99.90;;;;;;5072601;28;20330;-57
2022/09/18 01:53:48;;;;;;;3.67;1.30;;;9.30;99.90;;;;;;5054166;28;20351;-57
2022/09/18 01:56:35;;;;;;;3.73;1.10;;;9.40;99.90;;;;;;5071865;28;20177;-57
2022/09/18 01:59:06;;;;;;;4.63;1.17;;;9.40;99.90;;;;;;5072418;28;20353;-57
2022/09/18 02:01:34;;;;;;;5.50;1.17;;;9.30;99.90;;;;;;5072412;28;20172;-57
2022/09/18 02:04:07;;;;;;;4.40;1.50;;;9.20;99.90;;;;;;5072414;28;20320;-58
2022/09/18 02:06:53;;;;;;;3.20;1.33;;;9.20;99.90;;;;;;5072334;28;20216;-57
2022/09/18 02:09:19;;;;;;;3.80;1.23;;;9.20;99.90;;;;;;5054437;28;20184;-57
2022/09/18 02:11:51;;;;;;;3.53;1.20;;;9.10;99.90;;;;;;5071983;28;20208;-57
2022/09/18 02:14:23;;;;;;;2.00;1.20;;;9.10;99.90;;;;;;5072340;28;20200;-57
2022/09/18 02:17:04;;;;;;;2.97;1.30;;;9.10;99.90;;;;;;5071549;28;20173;-57
2022/09/18 02:19:36;;;;;;;5.57;1.47;;;8.90;99.90;;;;;;5072135;28;20278;-56
2022/09/18 02:22:08;;;;;;;2.93;1.33;;;8.90;99.90;;;;;;5071813;28;20181;-57
2022/09/18 02:24:36;;;;;;;3.20;1.20;;;9.00;99.90;;;;;;5071631;28;20192;-56
2022/09/18 02:27:04;;;;;;;5.57;1.13;;;8.90;99.90;;;;;;5071727;28;20220;-57
2022/09/18 02:29:32;;;;;;;5.67;1.40;;;8.90;99.90;;;;;;5071880;28;20283;-57
2022/09/18 02:32:01;;;;;;;5.50;1.33;;;8.90;99.90;;;;;;5072120;28;20246;-57
2022/09/18 02:34:28;;;;;;;4.30;1.30;;;9.00;99.90;;;;;;5071695;28;20173;-57
2022/09/18 02:37:12;;;;;;;2.73;1.30;;;9.20;99.90;;;;;;5071525;28;20241;-57
2022/09/18 02:39:58;;;;;;;10.60;1.50;;;9.20;99.90;;;;;;5071413;28;20217;-59
2022/09/18 02:42:30;;;;;;;4.00;1.20;;;9.30;99.90;;;;;;5071776;28;20187;-57
2022/09/18 02:45:26;;;;;;;9.23;1.30;;;9.30;99.90;;;;;;5071353;28;20180;-58
2022/09/18 02:48:19;;;;;;;5.13;1.20;;;9.10;99.90;;;;;;5071583;28;20188;-57
2022/09/18 02:50:57;;;;;;;6.03;1.40;;;9.10;99.90;;;;;;5071375;28;20255;-57
2022/09/18 02:53:43;;;;;;;3.20;1.10;;;9.10;99.90;;;;;;5053421;28;20700;-57
2022/09/18 02:56:30;;;;;;;4.97;1.47;;;9.00;99.90;;;;;;5070023;28;20180;-57
2022/09/18 02:59:03;;;;;;;10.03;1.30;;;9.00;99.90;;;;;;5071373;28;20199;-57
2022/09/18 03:01:31;;;;;;;3.23;1.03;;;9.00;99.90;;;;;;5071060;28;20208;-57
2022/09/18 03:04:08;;;;;;;4.93;1.27;;;8.90;99.90;;;;;;5070942;28;20273;-57
2022/09/18 03:06:37;;;;;;;3.27;1.30;;;8.90;99.90;;;;;;5070934;28;20261;-57
2022/09/18 03:09:03;;;;;;;4.07;1.27;;;8.80;99.90;;;;;;5070136;28;20176;-57
2022/09/18 03:11:28;;;;;;;3.33;1.27;;;8.50;99.90;;;;;;5071189;28;20555;-57
2022/09/18 03:13:54;;;;;;;5.03;1.20;;;8.70;99.90;;;;;;5071229;28;20184;-56
2022/09/18 03:16:20;;;;;;;2.20;1.20;;;8.70;99.90;;;;;;5053334;28;20173;-56
2022/09/18 03:18:45;;;;;;;4.53;1.10;;;8.70;99.90;;;;;;5070935;28;20199;-57
2022/09/18 03:21:11;;;;;;;3.27;1.30;;;8.70;99.90;;;;;;5057710;28;20576;-57
2022/09/18 03:23:37;;;;;;;8.13;1.60;;;8.70;99.90;;;;;;5069117;28;20528;-57
2022/09/18 03:26:02;;;;;;;3.13;1.90;;;8.70;99.90;;;;;;5069958;28;20688;-56
2022/09/18 03:28:31;;;;;;;6.50;1.77;;;8.70;99.90;;;;;;5070592;28;20520;-57
2022/09/18 03:30:57;;;;;;;3.37;1.50;;;8.70;99.90;;;;;;5062778;28;20173;-57
2022/09/18 03:33:23;;;;;;;3.17;1.27;;;8.70;99.90;;;;;;5061617;28;20610;-57
2022/09/18 03:35:48;;;;;;;2.90;1.30;;;8.70;99.90;;;;;;5070759;28;20176;-57
2022/09/18 03:38:14;;;;;;;5.70;1.80;;;8.70;99.90;;;;;;5070094;28;20180;-57
2022/09/18 03:40:44;;;;;;;6.93;1.37;;;8.70;99.90;;;;;;5070766;28;20562;-57
2022/09/18 03:43:10;;;;;;;2.43;1.10;;;8.70;99.90;;;;;;5070370;28;20203;-57
2022/09/18 03:45:35;;;;;;;2.87;1.33;;;8.70;99.90;;;;;;5070201;28;20223;-57
2022/09/18 03:48:01;;;;;;;3.17;1.17;;;8.60;99.90;;;;;;5070520;28;20555;-57
2022/09/18 03:50:28;;;;;;;5.30;1.60;;;8.60;99.90;;;;;;5070460;28;20184;-57
2022/09/18 03:52:54;;;;;;;3.27;1.27;;;8.50;99.90;;;;;;5070558;28;20181;-57
2022/09/18 03:55:21;;;;;;;5.43;1.53;;;8.50;99.90;;;;;;5070445;28;20188;-57
2022/09/18 03:57:48;;;;;;;5.00;1.70;;;8.50;99.90;;;;;;5070469;28;20199;-56
2022/09/18 04:00:14;;;;;;;3.40;1.27;;;8.50;99.90;;;;;;5070398;28;20184;-56
2022/09/18 04:02:41;;;;;;;4.30;1.50;;;8.50;99.90;;;;;;5070224;28;20505;-56
2022/09/18 04:05:07;;;;;;;1.93;1.30;;;8.50;99.90;;;;;;5069772;28;20217;-56
2022/09/18 04:07:32;;;;;;;1.70;1.03;;;8.50;99.90;;;;;;5070045;28;20212;-57
2022/09/18 04:09:58;;;;;;;8.00;1.47;;;8.50;99.90;;;;;;5070076;28;20761;-56
2022/09/18 04:12:23;;;;;;;11.00;1.50;;;8.50;99.90;;;;;;5070037;28;20635;-56
2022/09/18 04:14:49;;;;;;;3.30;1.23;;;8.50;99.90;;;;;;5052407;28;20259;-56
2022/09/18 04:17:15;;;;;;;3.53;1.47;;;8.60;99.90;;;;;;5070355;28;20172;-56
2022/09/18 04:19:40;;;;;;;2.77;1.30;;;8.50;99.90;;;;;;5070000;28;20631;-56
2022/09/18 04:22:06;;;;;;;2.20;1.30;;;8.50;99.90;;;;;;5052236;28;20642;-56
2022/09/18 04:24:33;;;;;;;8.97;1.60;;;8.50;99.90;;;;;;5069724;28;20179;-56
2022/09/18 04:26:59;;;;;;;3.50;1.40;;;8.50;99.90;;;;;;5070089;28;20244;-56
2022/09/18 04:29:25;;;;;;;5.13;1.13;;;8.50;99.90;;;;;;5069896;28;20264;-57
2022/09/18 04:31:50;;;;;;;4.07;1.67;;;8.40;99.90;;;;;;5070011;28;20176;-57
2022/09/18 04:34:16;;;;;;;3.33;1.70;;;8.40;99.90;;;;;;5069729;28;20180;-57
2022/09/18 04:36:41;;;;;;;4.17;1.30;;;8.40;99.90;;;;;;5070119;28;20636;-57
2022/09/18 04:39:07;;;;;;;3.23;1.37;;;8.40;99.90;;;;;;5069407;28;20211;-57
2022/09/18 04:41:33;;;;;;;5.53;1.40;;;8.40;99.90;;;;;;5070025;28;20564;-57
2022/09/18 04:43:58;;;;;;;4.33;1.40;;;8.40;99.90;;;;;;5069902;28;20249;-57
2022/09/18 04:46:24;;;;;;;6.67;1.77;;;8.50;99.90;;;;;;5069616;28;20233;-57
2022/09/18 04:48:49;;;;;;;4.43;1.40;;;8.50;99.90;;;;;;5069770;28;20173;-58
2022/09/18 04:51:15;;;;;;;3.20;1.43;;;8.40;99.90;;;;;;5069080;28;20658;-57
2022/09/18 04:53:41;;;;;;;7.37;1.40;;;8.40;99.90;;;;;;5069553;28;20172;-57
2022/09/18 04:56:06;;;;;;;3.03;1.50;;;8.40;99.90;;;;;;5069322;28;20683;-57
2022/09/18 04:58:32;;;;;;;3.87;1.27;;;8.40;99.90;;;;;;5069841;28;20173;-57
2022/09/18 05:00:58;;;;;;;5.33;1.73;;;8.40;99.90;;;;;;5069357;28;20180;-57
2022/09/18 05:03:24;;;;;;;5.77;1.80;;;8.30;99.90;;;;;;5068897;28;20223;-58
2022/09/18 05:05:50;;;;;;;4.63;1.63;;;8.20;99.90;;;;;;5069033;28;20299;-57
2022/09/18 05:08:15;;;;;;;4.97;1.67;;;8.20;99.90;;;;;;5068707;28;20603;-57
2022/09/18 05:10:42;;;;;;;5.30;2.10;;;8.20;99.90;;;;;;5069606;28;20176;-58
2022/09/18 05:13:08;;;;;;;4.73;1.90;;;8.20;99.90;;;;;;5069386;28;20216;-57
2022/09/18 05:15:34;;;;;;;3.93;2.10;;;8.20;99.90;;;;;;5069452;28;20638;-57
2022/09/18 05:18:02;;;;;;;7.70;1.90;;;8.20;99.90;;;;;;5069267;28;20176;-58
2022/09/18 05:20:28;;;;;;;4.73;1.80;;;8.30;99.90;;;;;;5069520;28;20230;-58
2022/09/18 05:22:54;;;;;;;4.67;1.53;;;8.30;99.90;;;;;;5069089;28;20671;-57
2022/09/18 05:25:20;;;;;;;2.83;1.30;;;8.30;99.90;;;;;;5069602;28;20185;-58
2022/09/18 05:27:57;;;;;;;7.90;1.47;;;8.30;99.90;;;;;;5069323;28;20220;-58
2022/09/18 05:30:24;;;;;;;3.20;1.70;;;8.30;99.90;;;;;;5062386;28;20180;-58
2022/09/18 05:33:00;;;;;;;5.70;1.50;;;8.40;99.90;;;;;;5058136;28;20208;-58
2022/09/18 05:35:28;;;;;;;2.47;1.37;;;8.30;99.90;;;;;;5055183;28;20276;-59
2022/09/18 05:37:54;;;;;;;4.23;1.70;;;8.30;99.90;;;;;;5072767;28;20639;-58
2022/09/18 05:40:22;;;;;;;4.33;1.73;;;8.30;99.90;;;;;;5072793;28;20191;-58
2022/09/18 05:42:49;;;;;;;4.80;1.50;;;8.30;99.90;;;;;;5072903;28;20195;-58
2022/09/18 05:45:15;;;;;;;6.07;1.73;;;8.20;99.90;;;;;;5072795;28;20169;-58
2022/09/18 05:47:42;;;;;;;7.43;1.37;;;8.10;99.90;;;;;;5072433;28;20207;-58
2022/09/18 05:50:08;;;;;;;3.47;1.40;;;8.10;99.90;;;;;;5072804;28;20264;-58
2022/09/18 05:52:34;;;;;;;6.47;1.90;;;8.10;99.90;;;;;;5072956;28;20191;-58
2022/09/18 05:55:00;;;;;;;5.30;2.00;;;8.10;99.90;;;;;;5070622;28;20572;-58
2022/09/18 05:57:26;;;;;;;6.07;1.70;;;8.10;99.90;;;;;;5072644;28;20218;-58
2022/09/18 05:59:52;;;;;;;4.10;1.60;;;8.10;99.90;;;;;;5072798;28;20211;-58
2022/09/18 06:02:17;;;;;;;6.83;1.77;;;8.10;99.90;;;;;;5072331;28;20184;-58
2022/09/18 06:04:43;;;;;;;6.57;1.80;;;8.10;99.90;;;;;;5072168;28;20304;-58
2022/09/18 06:07:08;;;;;;;4.73;1.40;;;8.10;99.90;;;;;;5072169;28;20208;-58
2022/09/18 06:09:34;;;;;;;9.40;1.60;;;8.10;99.90;;;;;;5072583;28;20549;-58
2022/09/18 06:12:00;;;;;;;6.30;1.77;;;8.20;99.90;;;;;;5072427;28;20548;-58
2022/09/18 06:14:26;;;;;;;5.50;1.87;;;8.20;99.90;;;;;;5072099;28;20226;-58
2022/09/18 06:16:52;;;;;;;3.20;1.57;;;8.20;99.90;;;;;;5072426;28;20263;-58
2022/09/18 06:19:18;;;;;;;3.27;1.40;;;8.20;99.90;;;;;;5072128;28;20700;-58
2022/09/18 06:21:43;;;;;;;4.87;1.57;;;8.20;99.90;;;;;;5072201;28;20173;-58
2022/09/18 06:24:09;;;;;;;2.43;1.40;;;8.30;99.90;;;;;;5071957;28;20164;-58
2022/09/18 06:26:34;;;;;;;5.93;2.20;;;8.30;99.90;;;;;;5071857;28;20709;-58
2022/09/18 06:29:00;;;;;;;5.20;1.60;;;8.30;99.90;;;;;;5072102;28;20202;-58
2022/09/18 06:31:26;;;;;;;8.50;1.80;;;8.40;99.90;;;;;;5071408;28;20229;-58
2022/09/18 06:33:52;;;;;;;6.70;1.60;;;8.40;99.90;;;;;;5071888;28;20573;-58
2022/09/18 06:36:17;;;;;;;2.40;1.73;;;8.50;99.90;;;;;;5071991;28;20705;-57
2022/09/18 06:38:44;;;;;;;7.93;1.90;;;8.60;99.90;;;;;;5071247;28;20187;-58
2022/09/18 06:41:09;;;;;;;7.47;1.90;;;8.60;99.90;;;;;;5072182;28;20626;-58
2022/09/18 06:43:35;;;;;;;3.60;1.87;;;8.60;99.90;;;;;;5070910;28;20176;-58
2022/09/18 06:46:02;;;;;;;3.90;2.10;;;8.70;99.90;;;;;;5071656;28;20632;-58
2022/09/18 06:48:28;;;;;;;4.57;1.80;;;8.80;99.90;;;;;;5071473;28;20207;-58
2022/09/18 06:50:56;;;;;;;5.63;2.00;;;8.80;99.90;;;;;;5071452;28;20687;-58
2022/09/18 06:53:23;;;;;;;6.90;1.90;;;8.90;99.90;;;;;;5070826;28;20639;-59
2022/09/18 06:55:49;;;;;;;2.87;1.40;;;8.90;99.90;;;;;;5070440;28;20188;-59
2022/09/18 06:58:16;;;;;;;4.27;1.50;;;9.00;99.90;;;;;;5071500;28;20623;-59
2022/09/18 07:00:42;;;;;;;7.27;1.70;;;9.00;99.90;;;;;;5071605;28;20268;-58
2022/09/18 07:03:08;;;;;;;5.77;1.90;;;9.10;99.90;;;;;;5070359;28;20643;-57
2022/09/18 07:05:37;;;;;;;3.90;1.67;;;9.20;99.90;;;;;;5053252;28;20271;-57
2022/09/18 07:08:02;;;;;;;3.40;1.77;;;9.20;99.90;;;;;;5053214;28;20188;-59
2022/09/18 07:10:28;;;;;;;4.20;1.87;;;9.40;99.90;;;;;;5070540;28;20552;-59
2022/09/18 07:12:56;;;;;;;5.33;1.77;;;9.50;99.90;;;;;;5070140;28;20194;-59
2022/09/18 07:15:22;;;;;;;5.20;1.93;;;9.70;99.90;;;;;;5071193;28;20175;-59
2022/09/18 07:17:47;;;;;;;7.10;1.63;;;9.90;99.90;;;;;;5071222;28;20347;-59
2022/09/18 07:20:13;;;;;;;5.33;1.60;;;10.10;99.90;;;;;;5070909;28;20673;-59
2022/09/18 07:22:40;;;;;;;3.27;1.73;;;10.30;99.90;;;;;;5071267;28;20188;-59
2022/09/18 07:25:07;;;;;;;5.37;1.87;;;10.40;99.90;;;;;;5070877;28;20241;-59
2022/09/18 07:27:33;;;;;;;3.17;1.40;;;10.50;99.90;;;;;;5069625;28;20369;-60
2022/09/18 07:29:59;;;;;;;1.93;1.37;;;10.70;99.90;;;;;;5070644;28;20172;-59
2022/09/18 07:32:25;;;;;;;5.00;1.40;;;10.80;99.90;;;;;;5070488;28;20523;-59
2022/09/18 07:34:51;;;;;;;4.73;1.43;;;10.80;99.90;;;;;;5070676;28;20548;-59
2022/09/18 07:37:17;;;;;;;4.17;1.43;;;10.80;99.90;;;;;;5070531;28;20168;-60
2022/09/18 07:39:43;;;;;;;4.10;1.27;;;10.80;99.90;;;;;;5070500;28;20169;-60
2022/09/18 07:42:10;;;;;;;4.53;1.33;;;10.90;99.90;;;;;;5070541;28;20507;-59
2022/09/18 07:44:36;;;;;;;2.47;1.40;;;11.00;99.90;;;;;;5070448;28;20168;-60
2022/09/18 07:47:02;;;;;;;7.10;1.63;;;11.10;99.90;;;;;;5071983;28;20207;-59
2022/09/18 07:49:28;;;;;;;5.20;1.40;;;11.20;99.90;;;;;;5070690;28;20172;-58
2022/09/18 07:51:53;;;;;;;3.80;1.10;;;11.30;99.90;;;;;;5071780;28;20183;-59
2022/09/18 07:54:19;;;;;;;5.00;1.63;;;11.50;99.90;;;;;;5069266;28;20207;-59
2022/09/18 07:56:45;;;;;;;2.50;1.40;;;11.70;99.90;;;;;;5069591;28;20247;-59
2022/09/18 07:59:11;;;;;;;5.03;1.30;;;11.90;99.90;;;;;;5070658;28;20259;-59
2022/09/18 08:01:36;;;;;;;6.53;1.23;;;12.10;99.90;;;;;;5068938;28;20259;-57
2022/09/18 08:04:03;;;;;;;3.43;1.30;;;12.30;99.90;;;;;;5069656;28;20244;-57
2022/09/18 08:06:29;;;;;;;4.73;1.17;;;12.40;99.90;;;;;;5070365;28;20220;-57
2022/09/18 08:08:55;;;;;;;3.90;1.13;;;12.50;99.90;;;;;;5069795;28;20269;-57
2022/09/18 08:11:21;;;;;;;3.43;0.97;;;12.60;99.90;;;;;;5070494;28;20195;-56
2022/09/18 08:13:48;;;;;;;4.23;0.97;;;12.70;99.90;;;;;;5057015;28;20176;-56
2022/09/18 08:16:14;;;;;;;2.07;0.97;;;12.90;99.90;;;;;;5049393;28;20270;-57
2022/09/18 08:18:39;;;;;;;2.07;1.00;;;13.00;99.90;;;;;;5065037;28;20207;-56
2022/09/18 08:21:06;;;;;;;3.60;0.87;;;13.20;99.90;;;;;;5049756;28;20546;-57
2022/09/18 08:23:32;;;;;;;7.23;0.90;;;13.30;99.90;;;;;;5054315;28;20185;-56
2022/09/18 08:26:03;;;;;;;5.13;0.90;;;13.40;99.90;;;;;;5051768;28;20208;-56
2022/09/18 08:28:29;;;;;;;2.80;1.10;;;13.90;99.90;;;;;;5067245;28;20188;-58
2022/09/18 08:30:56;;;;;;;2.30;0.60;;;14.40;99.90;;;;;;5070056;28;20172;-57
2022/09/18 08:33:22;;;;;;;4.60;1.00;;;15.20;99.90;;;;;;5070205;28;20619;-57
2022/09/18 08:35:48;;;;;;;1.80;0.70;;;15.70;99.90;;;;;;5069651;28;20606;-55
2022/09/18 08:38:14;;;;;;;3.60;0.60;;;16.90;99.90;;;;;;5069789;28;20177;-56
2022/09/18 08:41:01;;;;;;;3.90;0.98;;;18.90;99.90;;;;;;5069782;28;20207;-55
2022/09/18 08:43:26;;;;;;;2.30;0.70;;;20.00;99.90;;;;;;5069665;28;20593;-57
2022/09/18 08:46:08;;;;;;;3.80;0.90;;;20.30;99.90;;;;;;5051442;28;20188;-59
2022/09/18 08:48:48;;;;;;;1.52;0.80;;;21.20;99.90;;;;;;5069287;28;20169;-58
2022/09/18 08:51:44;;;;;;;4.38;0.90;;;22.40;99.90;;;;;;5070073;28;20172;-55
2022/09/18 08:54:26;;;;;;;3.50;0.70;;;22.40;99.90;;;;;;5067831;28;20548;-55
2022/09/18 08:56:56;;;;;;;1.92;0.70;;;21.30;99.90;;;;;;5069545;28;20168;-59
2022/09/18 08:59:38;;;;;;;2.70;0.80;;;20.20;99.90;;;;;;5069977;28;20183;-59
2022/09/18 09:02:24;;;;;;;3.22;0.60;;;19.40;99.90;;;;;;5046382;28;20192;-57
2022/09/18 09:05:00;;;;;;;2.20;0.70;;;18.50;99.90;;;;;;5057663;28;20224;-59
2022/09/18 09:07:34;;;;;;;4.20;0.90;;;17.80;99.90;;;;;;5044844;28;20294;-58
2022/09/18 09:10:20;;;;;;;2.92;1.02;;;17.40;99.90;;;;;;5073750;28;20281;-57
2022/09/18 09:12:57;;;;;;;3.67;1.13;;;17.20;99.90;;;;;;5072689;28;20184;-57
2022/09/18 09:15:41;;;;;;;4.68;1.00;;;16.90;99.90;;;;;;5073208;28;20245;-57
2022/09/18 09:18:17;;;;;;;1.73;0.85;;;16.60;99.90;;;;;;5073598;28;20179;-58
2022/09/18 09:20:55;;;;;;;4.20;0.90;;;16.60;99.90;;;;;;5072607;28;20217;-58
2022/09/18 09:23:58;;;;;;;5.43;0.80;;;16.60;99.90;;;;;;5072483;28;20285;-59
2022/09/18 09:26:25;;;;;;;4.20;1.45;;;16.70;99.90;;;;;;5072564;28;20208;-59
2022/09/18 09:29:12;;;;;;;4.32;1.15;;;16.40;99.90;;;;;;5053817;28;20172;-56
2022/09/18 09:31:45;;;;;;;5.80;1.17;;;16.50;99.90;;;;;;5061845;28;20347;-55
2022/09/18 09:34:55;;;;;;;4.03;1.40;;;16.40;99.90;;;;;;5072823;28;20284;-55
2022/09/18 09:37:27;;;;;;;5.57;1.25;;;16.20;99.90;;;;;;5049399;28;20250;-55
2022/09/18 09:40:06;;;;;;;1.52;1.00;;;16.20;99.90;;;;;;5063829;28;20181;-59
2022/09/18 09:42:57;;;;;;;2.80;1.20;;;16.10;99.90;;;;;;5066283;28;20191;-58
2022/09/18 09:45:28;;;;;;;1.65;0.80;;;16.00;99.90;;;;;;5054580;28;20192;-57
2022/09/18 09:48:26;;;;;;;3.20;0.85;;;15.90;99.90;;;;;;5072563;28;20196;-56
2022/09/18 09:51:35;;;;;;;3.75;1.27;;;14.90;99.90;;;;;;5052229;28;20181;-56
2022/09/18 09:54:01;;;;;;;3.15;0.90;;;18.70;99.90;;;;;;5054658;28;20653;-56
2022/09/18 09:56:43;;;;;;;3.67;1.20;;;20.00;99.90;;;;;;5072045;28;20326;-57
2022/09/18 09:59:18;;;;;;;2.05;1.00;;;20.90;99.90;;;;;;5070451;28;20184;-56
2022/09/18 10:01:58;;;;;;;2.47;0.90;;;21.00;99.90;;;;;;5073337;28;20464;-57
2022/09/18 10:04:45;;;;;;;4.90;1.00;;;21.50;99.90;;;;;;5071821;28;20220;-56
2022/09/18 10:07:25;;;;;;;4.40;0.90;;;21.60;99.90;;;;;;5071006;28;20573;-57
2022/09/18 10:09:57;;;;;;;3.00;0.80;;;22.20;99.90;;;;;;5069939;28;20172;-57
2022/09/18 10:12:50;;;;;;;2.50;0.90;;;23.20;99.90;;;;;;5070474;28;20644;-57
2022/09/18 10:15:25;;;;;;;6.93;1.08;;;24.00;99.90;;;;;;5070446;28;20173;-57
2022/09/18 10:17:55;;;;;;;4.45;1.48;;;24.60;99.90;;;;;;5069919;28;20656;-57
2022/09/18 10:20:26;;;;;;;4.90;1.00;;;24.10;99.90;;;;;;5071269;28;20243;-57
2022/09/18 10:22:54;;;;;;;1.85;0.75;;;24.30;99.90;;;;;;5053443;28;20168;-57
2022/09/18 10:25:51;;;;;;;2.60;0.73;;;24.10;99.90;;;;;;5070451;28;20176;-57
2022/09/18 10:28:16;;;;;;;4.20;0.95;;;24.60;99.90;;;;;;5070172;28;20399;-57
2022/09/18 10:30:53;;;;;;;1.95;0.90;;;24.10;99.90;;;;;;5070317;28;20647;-57
2022/09/18 10:33:43;;;;;;;2.17;0.90;;;24.60;99.90;;;;;;5070765;28;20203;-57
2022/09/18 10:36:15;;;;;;;1.88;0.90;;;24.30;99.90;;;;;;5061714;28;20521;-57
2022/09/18 10:38:41;;;;;;;3.17;0.70;;;24.70;99.90;;;;;;5071496;28;20173;-58
2022/09/18 10:41:16;;;;;;;1.90;0.82;;;24.80;99.90;;;;;;5071047;28;20260;-57
2022/09/18 10:44:11;;;;;;;3.53;0.80;;;24.50;99.90;;;;;;5072045;28;20206;-57
2022/09/18 10:46:39;;;;;;;3.78;0.93;;;24.40;99.90;;;;;;5071494;28;20211;-58
2022/09/18 10:49:24;;;;;;;3.70;1.58;;;24.80;99.90;;;;;;5071597;28;20291;-57
2022/09/18 10:52:21;;;;;;;3.42;0.77;;;24.60;99.90;;;;;;5068402;28;20306;-57
2022/09/18 10:55:08;;;;;;;3.05;0.80;;;24.70;99.90;;;;;;5070924;28;20176;-57
2022/09/18 10:57:36;;;;;;;2.58;1.00;;;24.20;99.90;;;;;;5071757;28;20171;-55
2022/09/18 11:00:15;;;;;;;2.42;0.82;;;23.50;99.90;;;;;;5071358;28;20600;-56
2022/09/18 11:02:59;;;;;;;3.72;0.93;;;24.70;99.90;;;;;;5070951;28;20168;-56
2022/09/18 11:05:34;;;;;;;3.55;0.95;;;25.60;99.90;;;;;;5011828;28;20186;-56
2022/09/18 11:08:13;;;;;;;4.97;1.15;;;25.90;99.90;;;;;;5011624;28;20262;-56
2022/09/18 11:10:38;;;;;;;5.28;0.98;;;26.20;99.90;;;;;;5014693;28;20204;-56
2022/09/18 11:13:04;;;;;;;6.97;0.82;;;26.20;99.90;;;;;;5028958;28;20237;-56
2022/09/18 11:15:35;;;;;;;2.72;0.80;;;26.80;99.90;;;;;;5020267;28;20530;-56
2022/09/18 11:18:05;;;;;;;2.65;1.10;;;26.80;99.90;;;;;;5031377;28;20162;-56
2022/09/18 11:20:37;;;;;;;2.70;1.00;;;26.50;99.90;;;;;;5016725;28;20190;-56
2022/09/18 11:23:23;;;;;;;4.47;0.80;;;26.10;99.90;;;;;;5014666;28;20213;-56
2022/09/18 11:26:06;;;;;;;3.47;1.00;;;25.50;99.90;;;;;;5011673;28;20522;-56
2022/09/18 11:28:32;;;;;;;5.28;1.25;;;25.40;99.90;;;;;;5011728;28;20181;-56
2022/09/18 11:31:01;;;;;;;1.60;0.75;;;26.00;99.90;;;;;;5018177;28;20170;-56
2022/09/18 11:33:47;;;;;;;4.18;1.00;;;26.00;99.90;;;;;;5031101;28;20174;-56
2022/09/18 11:36:15;;;;;;;2.80;0.88;;;25.20;99.90;;;;;;5020259;28;20174;-56
2022/09/18 11:38:44;;;;;;;4.32;1.10;;;25.00;99.90;;;;;;5031145;28;20178;-56
2022/09/18 11:41:12;;;;;;;3.05;0.98;;;25.10;99.90;;;;;;5031156;28;20174;-55
2022/09/18 11:43:40;;;;;;;3.53;0.90;;;24.30;99.90;;;;;;5031035;28;20170;-56
2022/09/18 11:46:05;;;;;;;2.25;1.05;;;23.80;99.90;;;;;;5030916;28;20260;-56
2022/09/18 11:48:43;;;;;;;3.63;0.98;;;23.90;99.90;;;;;;5030535;28;20185;-56
2022/09/18 11:51:15;;;;;;;2.92;0.95;;;24.40;99.90;;;;;;5030527;28;20178;-56
2022/09/18 11:53:47;;;;;;;2.95;0.93;;;24.80;99.90;;;;;;5030932;28;20177;-56
2022/09/18 11:56:32;;;;;;;5.07;1.10;;;26.30;99.90;;;;;;5030678;28;20181;-56
2022/09/18 11:59:04;;;;;;;2.72;0.88;;;26.30;99.90;;;;;;5030970;28;20170;-56
2022/09/18 12:01:44;;;;;;;2.42;1.00;;;26.50;99.90;;;;;;5030874;28;20172;-56
2022/09/18 12:04:25;;;;;;;4.18;1.00;;;26.70;99.90;;;;;;5049745;28;20220;-56
2022/09/18 12:07:10;;;;;;;2.72;0.80;;;26.80;99.90;;;;;;5068520;28;20203;-56
2022/09/18 12:09:36;;;;;;;3.75;1.02;;;26.00;99.90;;;;;;5069789;28;20191;-55
2022/09/18 12:12:13;;;;;;;3.80;0.98;;;23.80;99.90;;;;;;5070023;28;20578;-55
2022/09/18 12:15:04;;;;;;;1.50;0.90;;;22.80;99.90;;;;;;5069204;28;20552;-55
2022/09/18 12:17:50;;;;;;;4.25;1.17;;;23.20;99.90;;;;;;5069386;28;20180;-55
2022/09/18 12:20:58;;;;;;;2.50;0.90;;;22.40;99.90;;;;;;5050146;28;20246;-55
2022/09/18 12:23:26;;;;;;;3.13;0.88;;;22.20;99.90;;;;;;5007093;28;20178;-55
2022/09/18 12:26:13;;;;;;;2.58;0.90;;;23.70;99.90;;;;;;5057893;28;20203;-55
2022/09/18 12:29:13;;;;;;;1.67;0.80;;;25.20;99.90;;;;;;5070265;28;20173;-55
2022/09/18 12:32:06;;;;;;;5.65;1.20;;;25.10;99.90;;;;;;5069961;28;20245;-56
2022/09/18 12:34:54;;;;;;;2.25;0.85;;;26.30;99.90;;;;;;5068726;28;20211;-56
2022/09/18 12:37:47;;;;;;;4.28;0.90;;;27.30;99.90;;;;;;5069194;28;20269;-55
2022/09/18 12:40:35;;;;;;;4.00;1.17;;;28.10;99.90;;;;;;5048551;28;20176;-56
2022/09/18 12:44:05;;;;;;;5.18;1.10;;;28.00;99.90;;;;;;5073212;28;20534;-56
2022/09/18 12:46:49;;;;;;;1.92;0.90;;;28.50;99.90;;;;;;4972507;28;20211;-56
2022/09/18 12:49:51;;;;;;;2.13;1.00;;;27.60;99.90;;;;;;4979872;28;20194;-55
2022/09/18 12:52:31;;;;;;;2.75;1.13;;;28.80;99.90;;;;;;5019016;28;20254;-56
2022/09/18 12:55:12;;;;;;;3.60;1.00;;;27.90;99.90;;;;;;5061215;28;20204;-55
2022/09/18 12:57:54;;;;;;;4.38;0.70;;;26.80;99.90;;;;;;5073620;28;20192;-55
2022/09/18 13:00:21;;;;;;;7.13;1.05;;;25.70;99.90;;;;;;5073796;28;20330;-55
2022/09/18 13:02:56;;;;;;;4.20;1.50;;;24.60;99.90;;;;;;5073760;28;20519;-55
2022/09/18 13:05:29;;;;;;;3.90;1.40;;;23.80;99.90;;;;;;5073044;28;20231;-55
2022/09/18 13:08:15;;;;;;;5.55;1.00;;;24.80;99.90;;;;;;5053840;28;20216;-55
2022/09/18 13:10:44;;;;;;;4.05;0.90;;;25.90;99.90;;;;;;5063216;28;20631;-56
2022/09/18 13:13:42;;;;;;;2.45;1.00;;;27.20;99.90;;;;;;5072945;28;20669;-56
2022/09/18 13:16:32;;;;;;;5.47;0.95;;;26.80;99.90;;;;;;5057708;28;20177;-55
2022/09/18 13:19:08;;;;;;;1.80;0.90;;;27.20;99.90;;;;;;5053611;28;20173;-55
2022/09/18 13:21:40;;;;;;;4.50;1.02;;;25.70;99.90;;;;;;5068691;28;20587;-55